Flight Track Log - Related Links

Times and Time Zones

All times are in EDT time to prevent confusion due to time zone crossing. See the UAL258 flight status page for this flight to view local times or setup timezone preferences in your user account.

Time Position Orientation Groundspeed Altitude Reporting Facility
EDT Latitude Longitude Course Direction KTS MPH feet Rate Location/Type
20:38 37.6333 -122.3833 26° Northeast 160 184 1,600  Level Northern Cal TRACON
20:40 37.7303 -122.3225 26° Northeast 247 284 6,000 2,476 Climbing Oakland Center
20:41 37.8067 -122.3208 North 265 305 9,400 2,459 Climbing Oakland Center
20:42 37.8928 -122.3153 North 304 350 11,000 2,115 Climbing Oakland Center
20:43 37.9908 -122.3128 North 354 407 13,700 2,678 Climbing Oakland Center
20:44 38.1108 -122.3092 North 365 420 16,400 2,311 Climbing Oakland Center
20:45 38.2178 -122.3056 North 384 442 18,400 1,918 Climbing Oakland Center
20:46 38.3289 -122.3006 North 398 458 20,300 1,785 Climbing Oakland Center
20:47 38.4436 -122.2978 North 411 473 22,000 1,721 Climbing Oakland Center
20:48 38.5611 -122.2942 North 423 487 23,800 1,574 Climbing Oakland Center
20:49 38.6806 -122.2900 North 431 496 25,200 1,488 Climbing Oakland Center
20:50 38.7919 -122.2864 North 440 506 26,800 1,488 Climbing Oakland Center
20:51 38.9442 -122.2881 360° North 450 518 28,200 1,279 Climbing Oakland Center
20:52 39.0719 -122.2883 360° North 454 522 29,400 1,033 Climbing Oakland Center
20:53 39.2042 -122.2875 360° North 468 539 30,300 1,230 Climbing Oakland Center
20:54 39.3358 -122.2875 360° North 470 541 31,900 1,328 Climbing Oakland Center
20:55 39.4661 -122.2872 360° North 466 536 33,000 1,041 Climbing Oakland Center
20:56 39.5939 -122.2872 360° North 468 539 34,000 496 Climbing Oakland Center
20:57 39.7225 -122.2864 360° North 463 533 34,000  Level Oakland Center
20:58 39.8525 -122.2872 360° North 467 537 34,000  Level Oakland Center
20:59 39.9814 -122.2872 360° North 464 534 34,000  Level Oakland Center
21:00 40.1156 -122.2869 360° North 463 533 34,000  Level Oakland Center
21:01 40.2539 -122.2864 360° North 465 535 34,000  Level Oakland Center
21:02 40.3817 -122.2872 360° North 462 532 34,000  Level Oakland Center
21:03 40.5117 -122.2881 360° North 465 535 34,000  Level Oakland Center
21:04 40.6425 -122.2861 North 470 541 34,000  Level Oakland Center
21:05 40.7736 -122.2867 360° North 471 542 34,000  Level Oakland Center
21:06 40.9058 -122.2864 360° North 474 545 34,000  Level Oakland Center
21:07 41.0375 -122.2864 360° North 473 544 34,000  Level Oakland Center
21:08 41.1694 -122.2878 360° North 474 545 34,000  Level Oakland Center
21:09 41.3022 -122.2878 360° North 477 549 34,000  Level Oakland Center
21:10 41.3822 -122.2894 359° North 476 548 34,000  Level Seattle Center
21:11 41.5158 -122.2872 North 471 542 34,000 -50 Level Seattle Center
21:12 41.6458 -122.2869 360° North 465 535 33,900  Descending Seattle Center
21:13 41.7783 -122.2858 360° North 472 543 34,000 50 Climbing Seattle Center
21:14 41.9114 -122.2850 360° North 475 547 34,000  Level Seattle Center
21:15 42.0464 -122.2858 360° North 479 551 34,000  Level Seattle Center
21:16 42.1819 -122.2842 North 478 550 34,000  Level Seattle Center
21:17 42.3156 -122.2836 360° North 475 547 34,000  Level Seattle Center
21:18 42.4486 -122.2839 360° North 473 544 34,000 -50 Level Seattle Center
21:19 42.5803 -122.2842 360° North 472 543 33,900  Descending Seattle Center
21:20 42.7128 -122.2836 360° North 474 545 34,000 50 Climbing Seattle Center
21:21 42.8386 -122.2811 North 476 548 34,000  Level Seattle Center
21:22 42.9708 -122.2814 360° North 475 547 34,000  Level Seattle Center
21:23 43.1019 -122.2814 360° North 473 544 34,000  Level Seattle Center
21:24 43.2603 -122.2817 360° North 472 543 34,000  Level Seattle Center
21:25 43.3911 -122.2808 360° North 471 542 34,000  Level Seattle Center
21:26 43.5214 -122.2797 360° North 470 541 34,000  Level Seattle Center
21:27 43.6519 -122.2811 360° North 471 542 34,000  Level Seattle Center
21:28 43.7817 -122.2825 360° North 468 539 34,000  Level Seattle Center
21:29 43.9122 -122.2806 North 473 544 34,000  Level Seattle Center
21:30 44.0425 -122.2817 360° North 471 542 34,000  Level Seattle Center
21:31 44.1739 -122.2819 360° North 474 545 34,000  Level Seattle Center
21:32 44.3044 -122.2828 360° North 473 544 34,000  Level Seattle Center
21:33 44.4344 -122.2817 360° North 470 541 34,000  Level Seattle Center
21:34 44.5642 -122.2811 360° North 468 539 34,000  Level Seattle Center
21:35 44.6936 -122.2825 360° North 468 539 34,000  Level Seattle Center
21:36 44.8228 -122.2819 360° North 467 537 34,000 -50 Level Seattle Center
21:37 44.9597 -122.2814 360° North 469 540 33,900  Descending Seattle Center
21:38 45.0900 -122.2814 360° North 472 543 34,000  Climbing Seattle Center
21:39 45.2211 -122.2814 360° North 473 544 33,900  Descending Seattle Center
21:40 45.3508 -122.2806 360° North 470 541 34,000 50 Climbing Seattle Center
21:41 45.4819 -122.2794 360° North 474 545 34,000  Level Seattle Center
21:42 45.6125 -122.2794 360° North 472 543 34,000  Level Seattle Center
21:43 45.7439 -122.2794 360° North 474 545 34,000  Level Seattle Center
21:44 45.8756 -122.2786 360° North 475 547 34,000  Level Seattle Center
21:45 46.0078 -122.2781 360° North 478 550 34,000  Level Seattle Center
21:46 46.1392 -122.2786 360° North 475 547 34,000  Level Seattle Center
21:47 46.2711 -122.2767 North 473 544 34,000  Level Seattle Center
21:48 46.4278 -122.2767 360° North 474 545 34,000  Level Seattle Center
21:49 46.5575 -122.2761 360° North 471 542 34,000  Level Seattle Center
21:50 46.6864 -122.2756 360° North 469 540 34,000  Level Seattle Center
21:51 46.8158 -122.2778 359° North 469 540 34,000  Level Seattle Center
21:52 46.9447 -122.2772 360° North 469 540 34,000  Level Seattle Center
21:53 47.0742 -122.2772 360° North 471 542 34,000  Level Seattle Center
21:54 47.2033 -122.2786 360° North 470 541 34,000  Level Seattle Center
21:55 47.3333 -122.2794 360° North 472 543 34,000  Level Seattle Center
21:56 47.4619 -122.2789 360° North 470 541 34,000  Level Seattle Center
21:57 47.5889 -122.2775 360° North 469 540 34,000 -595 Level Seattle Center
21:58 47.7389 -122.2783 360° North 469 540 32,800 -1,686 Descending Seattle Center
21:59 47.8683 -122.2781 360° North 474 545 30,600 -2,430 Descending Seattle Center
22:00 47.9989 -122.3003 354° North 480 552 27,900 -2,678 Descending Seattle Center
22:01 48.1247 -122.3369 349° North 472 543 25,200 -2,777 Descending Seattle Center
22:02 48.2469 -122.3728 349° North 459 528 22,300 -2,975 Descending Seattle Center
22:03 48.3658 -122.4078 349° North 447 514 19,200 -3,025 Descending Seattle Center
22:04 48.4822 -122.4414 349° North 433 498 16,200 -3,025 Descending Seattle Center
22:05 48.5961 -122.4761 349° North 427 491 13,100 -3,075 Descending Seattle Center
22:06 48.6333 -122.4833 353° North 410 472 12,100 -1,063 Descending Vancouver Center
22:07 48.7167 -122.5333 338° Northwest 330 380 11,700 -1,250 Descending Vancouver Center
22:08 48.7667 -122.6333 307° West 300 345 9,600 -1,800 Descending Vancouver Center
22:09 48.8167 -122.7333 307° West 290 334 8,100 -800 Descending Vancouver Center
22:10 48.8500 -122.8167 301° West 280 322 8,000 -50 Descending Vancouver Center
22:11 48.9000 -122.9167 307° West 250 288 8,000 -950 Level Vancouver Center
22:12 48.9333 -122.9833 307° West 250 288 6,100 -2,050 Descending Vancouver Center
22:13 49.0000 -122.9833 360° North 240 276 3,900 -1,550 Descending Vancouver Center
22:14 49.0667 -122.9333 26° Northeast 230 265 3,000 -500 Descending Vancouver Center
22:15 49.1167 -122.9333 360° North 220 253 2,900 -300 Descending Vancouver Center
22:16 49.1500 -122.9833 316° Northwest 200 230 2,400 -500 Descending Vancouver Center

Login

Don't have an account? Register now (free) for customized features, flight alerts, and more!